Language selection

My Weather Profile Weather Topics  | 

Haro Strait: Past 24 Hour Conditions

 

Halibut Bank - 46146

04:00 AM PDT 24 June 2019Buoy position: 49.34N 123.72W
Disclaimer

This table is a summary of hourly weather conditions for the past 24 hours.
Please note that these observations might not always be representative of weather conditions over their associated marine area.

Date / Time
(PDT)
Wind(knots) Wave height(m) Wave period(s) Pressure(kPa) Air tempC) Water tempC)
24 June 2019
4:00 WNW 10 gust 12 0.4 3.0 101.7 16 17
3:00 NW 8 gust 12 0.4 3.0 101.8 16 17
2:00 W 12 gust 13 0.4 3.0 101.8 16 17
1:00 W 10 gust 12 0.4 3.0 101.8 16 17
0:00 WNW 13 gust 16 0.4 3.0 101.8 16 17
23 June 2019
23:00 WNW 12 gust 13 0.4 3.0 101.8 16 17
22:00 WNW 12 gust 13 0.3 3.0 101.8 16 18
21:00 WNW 8 gust 10 0.5 4.0 101.8 16 18
20:00 WNW 12 gust 13 0.6 4.0 101.8 17 18
19:00 W 13 gust 16 0.7 4.0 101.8 16 18
18:00 W 16 gust 17 0.4 3.0 101.9 16 18
17:00 W 8 gust 10 0.2 6.0 101.9 16 18
16:00 W 6 gust 6 0.2 3.0 102.0 16 18
15:00 W 4 gust 4 0.3 3.0 102.0 16 17
14:00 WSW 6 gust 8 0.3 3.0 102.0 15 17
13:00 W 6 gust 8 0.3 2.0 102.0 15 17
12:00 W 8 gust 8 0.3 2.0 102.0 15 17
11:00 WNW 8 gust 10 0.3 3.0 102.0 15 17
10:00 W 10 gust 12 0.3 3.0 102.0 15 17
9:00 W 10 gust 12 0.3 2.0 102.0 15 17
8:00 WNW 8 gust 10 0.2 2.0 102.0 15 17
7:00 S 4 gust 4 0.2 2.0 102.0 14 16
6:00 SE 4 gust 4 0.2 3.0 102.0 14 16
5:00 ESE 6 gust 8 0.3 3.0 102.0 14 16
4:00 SE 6 gust 6 0.3 3.0 102.0 15 16

Zoom-in to make a selection

Map of Pacific - Georgia Basin marine weather areas Sentry Shoal - 46131 Halibut Bank - 46146 La Perouse Bank - 46206 Discovery Island Esquimalt Harbour Kelp Reefs Malahat Race Rocks Lightstation Saturna Island Sheringham Point University of Victoria Victoria Gonzales Victoria Int'l Airport Ballenas Islands Campbell River Airport Comox Airport Entrance Island Fanny Island Nanaimo Airport Sisters Islets Estevan Point Port Alberni Tofino Airport Grief Point Howe Sound - Pam Rocks Powell River Airport Sechelt Squamish Airport Point Atkinson Sand Heads Lightstation Tsawwassen Ferry Terminal Vancouver Int'l Airport Vancouver Harbour West Vancouver
Legend:
buoy Buoy
land station Land Station

Pacific - Georgia Basin Area

Another Region

What we are doing

Features

Follow us on Facebook!

A page for weather lovers! Learn about interesting weather phenomena and get informed about Canada's changing climate.

Date modified: